sensor_id;sensor_type;location;lat;lon;timestamp;temperature;humidity
49777;DHT22;35673;51.482;7.436;2022-11-27T00:01:20;6.60;99.90
49777;DHT22;35673;51.482;7.436;2022-11-27T00:03:46;6.60;99.90
49777;DHT22;35673;51.482;7.436;2022-11-27T00:06:14;6.60;99.90
49777;DHT22;35673;51.482;7.436;2022-11-27T00:08:41;6.60;99.90
49777;DHT22;35673;51.482;7.436;2022-11-27T00:11:08;6.50;99.90
49777;DHT22;35673;51.482;7.436;2022-11-27T00:13:35;6.50;99.90
49777;DHT22;35673;51.482;7.436;2022-11-27T00:16:00;6.50;99.90
49777;DHT22;35673;51.482;7.436;2022-11-27T00:18:27;6.50;99.90
49777;DHT22;35673;51.482;7.436;2022-11-27T00:20:53;6.50;99.90
49777;DHT22;35673;51.482;7.436;2022-11-27T00:23:18;6.50;99.90
49777;DHT22;35673;51.482;7.436;2022-11-27T00:25:51;6.50;99.90
49777;DHT22;35673;51.482;7.436;2022-11-27T00:28:16;6.50;99.90
49777;DHT22;35673;51.482;7.436;2022-11-27T00:30:42;6.50;99.90
49777;DHT22;35673;51.482;7.436;2022-11-27T00:33:08;6.50;99.90
49777;DHT22;35673;51.482;7.436;2022-11-27T00:35:33;6.40;99.90
49777;DHT22;35673;51.482;7.436;2022-11-27T00:37:59;6.40;99.90
49777;DHT22;35673;51.482;7.436;2022-11-27T00:40:24;6.40;99.90
49777;DHT22;35673;51.482;7.436;2022-11-27T00:42:50;6.40;99.90
49777;DHT22;35673;51.482;7.436;2022-11-27T00:45:15;6.40;99.90
49777;DHT22;35673;51.482;7.436;2022-11-27T00:47:41;6.30;99.90
49777;DHT22;35673;51.482;7.436;2022-11-27T00:50:07;6.30;99.90
49777;DHT22;35673;51.482;7.436;2022-11-27T00:52:32;6.30;99.90
49777;DHT22;35673;51.482;7.436;2022-11-27T00:54:58;6.30;99.90
49777;DHT22;35673;51.482;7.436;2022-11-27T00:57:24;6.30;99.90
49777;DHT22;35673;51.482;7.436;2022-11-27T00:59:50;6.30;99.90
49777;DHT22;35673;51.482;7.436;2022-11-27T01:02:15;6.20;99.90
49777;DHT22;35673;51.482;7.436;2022-11-27T01:04:44;6.20;99.90
49777;DHT22;35673;51.482;7.436;2022-11-27T01:07:10;6.20;99.90
49777;DHT22;35673;51.482;7.436;2022-11-27T01:09:36;6.20;99.90
49777;DHT22;35673;51.482;7.436;2022-11-27T01:12:01;6.10;99.90
49777;DHT22;35673;51.482;7.436;2022-11-27T01:14:27;6.10;99.90
49777;DHT22;35673;51.482;7.436;2022-11-27T01:16:52;6.10;99.90
49777;DHT22;35673;51.482;7.436;2022-11-27T01:19:18;6.10;99.90
49777;DHT22;35673;51.482;7.436;2022-11-27T01:21:44;6.10;99.90
49777;DHT22;35673;51.482;7.436;2022-11-27T01:24:11;6.10;99.90
49777;DHT22;35673;51.482;7.436;2022-11-27T01:26:37;6.10;99.90
49777;DHT22;35673;51.482;7.436;2022-11-27T01:29:03;6.10;99.90
49777;DHT22;35673;51.482;7.436;2022-11-27T01:31:30;6.00;99.90
49777;DHT22;35673;51.482;7.436;2022-11-27T01:33:58;6.00;99.90
49777;DHT22;35673;51.482;7.436;2022-11-27T01:36:24;6.00;99.90
49777;DHT22;35673;51.482;7.436;2022-11-27T01:38:50;6.00;99.90
49777;DHT22;35673;51.482;7.436;2022-11-27T01:41:19;6.00;99.90
49777;DHT22;35673;51.482;7.436;2022-11-27T01:54:01;5.90;99.90
49777;DHT22;35673;51.482;7.436;2022-11-27T01:56:27;6.00;99.90
49777;DHT22;35673;51.482;7.436;2022-11-27T01:58:55;5.90;99.90
49777;DHT22;35673;51.482;7.436;2022-11-27T02:01:21;5.90;99.90
49777;DHT22;35673;51.482;7.436;2022-11-27T02:03:49;5.90;99.90
49777;DHT22;35673;51.482;7.436;2022-11-27T02:06:15;5.90;99.90
49777;DHT22;35673;51.482;7.436;2022-11-27T02:08:41;6.00;99.90
49777;DHT22;35673;51.482;7.436;2022-11-27T02:14:01;6.00;99.90
49777;DHT22;35673;51.482;7.436;2022-11-27T02:16:33;5.90;99.90
49777;DHT22;35673;51.482;7.436;2022-11-27T02:21:56;5.90;99.90
49777;DHT22;35673;51.482;7.436;2022-11-27T02:24:46;5.80;99.90
49777;DHT22;35673;51.482;7.436;2022-11-27T02:30:15;5.80;99.90
49777;DHT22;35673;51.482;7.436;2022-11-27T02:32:50;5.80;99.90
49777;DHT22;35673;51.482;7.436;2022-11-27T02:35:34;5.80;99.90
49777;DHT22;35673;51.482;7.436;2022-11-27T02:38:14;5.70;99.90
49777;DHT22;35673;51.482;7.436;2022-11-27T02:40:48;5.70;99.90
49777;DHT22;35673;51.482;7.436;2022-11-27T02:43:27;5.70;99.90
49777;DHT22;35673;51.482;7.436;2022-11-27T02:45:56;5.70;99.90
49777;DHT22;35673;51.482;7.436;2022-11-27T02:48:33;5.70;99.90
49777;DHT22;35673;51.482;7.436;2022-11-27T02:51:02;5.70;99.90
49777;DHT22;35673;51.482;7.436;2022-11-27T02:53:32;5.70;99.90
49777;DHT22;35673;51.482;7.436;2022-11-27T02:55:59;5.70;99.90
49777;DHT22;35673;51.482;7.436;2022-11-27T02:58:28;5.70;99.90
49777;DHT22;35673;51.482;7.436;2022-11-27T03:00:54;5.60;99.90
49777;DHT22;35673;51.482;7.436;2022-11-27T03:03:24;5.60;99.90
49777;DHT22;35673;51.482;7.436;2022-11-27T03:05:54;5.60;99.90
49777;DHT22;35673;51.482;7.436;2022-11-27T03:08:40;5.60;99.90
49777;DHT22;35673;51.482;7.436;2022-11-27T03:11:09;5.60;99.90
49777;DHT22;35673;51.482;7.436;2022-11-27T03:13:39;5.60;99.90
49777;DHT22;35673;51.482;7.436;2022-11-27T03:19:15;5.60;99.90
49777;DHT22;35673;51.482;7.436;2022-11-27T03:21:49;5.60;99.90
49777;DHT22;35673;51.482;7.436;2022-11-27T03:24:16;5.60;99.90
49777;DHT22;35673;51.482;7.436;2022-11-27T03:26:41;5.60;99.90
49777;DHT22;35673;51.482;7.436;2022-11-27T03:29:27;5.60;99.90
49777;DHT22;35673;51.482;7.436;2022-11-27T03:31:55;5.60;99.90
49777;DHT22;35673;51.482;7.436;2022-11-27T03:34:21;5.60;99.90
49777;DHT22;35673;51.482;7.436;2022-11-27T03:36:47;5.60;99.90
49777;DHT22;35673;51.482;7.436;2022-11-27T03:39:13;5.60;99.90
49777;DHT22;35673;51.482;7.436;2022-11-27T03:44:32;5.70;99.90
49777;DHT22;35673;51.482;7.436;2022-11-27T03:58:45;5.80;99.90
49777;DHT22;35673;51.482;7.436;2022-11-27T04:01:15;5.90;99.90
49777;DHT22;35673;51.482;7.436;2022-11-27T04:03:42;5.90;99.90
49777;DHT22;35673;51.482;7.436;2022-11-27T04:06:08;5.90;99.90
49777;DHT22;35673;51.482;7.436;2022-11-27T04:08:33;5.90;99.90
49777;DHT22;35673;51.482;7.436;2022-11-27T04:10:59;6.00;99.90
49777;DHT22;35673;51.482;7.436;2022-11-27T04:13:25;6.00;99.90
49777;DHT22;35673;51.482;7.436;2022-11-27T04:15:50;6.10;99.90
49777;DHT22;35673;51.482;7.436;2022-11-27T04:18:16;6.10;99.90
49777;DHT22;35673;51.482;7.436;2022-11-27T04:20:42;6.10;99.80
49777;DHT22;35673;51.482;7.436;2022-11-27T04:23:07;6.10;99.60
49777;DHT22;35673;51.482;7.436;2022-11-27T04:25:33;6.10;99.80
49777;DHT22;35673;51.482;7.436;2022-11-27T04:27:59;6.20;99.30
49777;DHT22;35673;51.482;7.436;2022-11-27T04:30:24;6.20;98.80
49777;DHT22;35673;51.482;7.436;2022-11-27T04:32:50;6.20;98.50
49777;DHT22;35673;51.482;7.436;2022-11-27T04:35:15;6.20;98.50
49777;DHT22;35673;51.482;7.436;2022-11-27T04:37:41;6.20;98.60
49777;DHT22;35673;51.482;7.436;2022-11-27T04:40:07;6.20;98.70
49777;DHT22;35673;51.482;7.436;2022-11-27T04:42:33;6.20;98.70
49777;DHT22;35673;51.482;7.436;2022-11-27T04:44:58;6.20;98.40
49777;DHT22;35673;51.482;7.436;2022-11-27T04:47:24;6.20;98.30
49777;DHT22;35673;51.482;7.436;2022-11-27T04:49:50;6.20;98.50
49777;DHT22;35673;51.482;7.436;2022-11-27T04:52:16;6.20;98.30
49777;DHT22;35673;51.482;7.436;2022-11-27T04:54:41;6.20;97.90
49777;DHT22;35673;51.482;7.436;2022-11-27T04:57:07;6.20;97.60
49777;DHT22;35673;51.482;7.436;2022-11-27T04:59:32;6.30;97.80
49777;DHT22;35673;51.482;7.436;2022-11-27T05:01:58;6.30;97.70
49777;DHT22;35673;51.482;7.436;2022-11-27T05:04:23;6.30;97.40
49777;DHT22;35673;51.482;7.436;2022-11-27T05:06:49;6.30;97.30
49777;DHT22;35673;51.482;7.436;2022-11-27T05:09:18;6.30;97.20
49777;DHT22;35673;51.482;7.436;2022-11-27T05:11:44;6.30;97.00
49777;DHT22;35673;51.482;7.436;2022-11-27T05:14:10;6.40;96.60
49777;DHT22;35673;51.482;7.436;2022-11-27T05:17:00;6.40;96.20
49777;DHT22;35673;51.482;7.436;2022-11-27T05:19:28;6.40;95.40
49777;DHT22;35673;51.482;7.436;2022-11-27T05:21:54;6.40;95.50
49777;DHT22;35673;51.482;7.436;2022-11-27T05:24:21;6.50;95.30
49777;DHT22;35673;51.482;7.436;2022-11-27T05:26:47;6.50;94.90
49777;DHT22;35673;51.482;7.436;2022-11-27T05:29:14;6.50;94.70
49777;DHT22;35673;51.482;7.436;2022-11-27T05:31:40;6.50;94.40
49777;DHT22;35673;51.482;7.436;2022-11-27T05:34:06;6.50;94.10
49777;DHT22;35673;51.482;7.436;2022-11-27T05:36:33;6.50;94.00
49777;DHT22;35673;51.482;7.436;2022-11-27T05:38:59;6.50;93.80
49777;DHT22;35673;51.482;7.436;2022-11-27T05:41:25;6.50;93.90
49777;DHT22;35673;51.482;7.436;2022-11-27T05:43:51;6.50;93.80
49777;DHT22;35673;51.482;7.436;2022-11-27T05:46:19;6.60;93.60
49777;DHT22;35673;51.482;7.436;2022-11-27T05:48:45;6.60;93.50
49777;DHT22;35673;51.482;7.436;2022-11-27T05:51:10;6.50;93.60
49777;DHT22;35673;51.482;7.436;2022-11-27T05:53:36;6.50;93.60
49777;DHT22;35673;51.482;7.436;2022-11-27T05:56:13;6.50;93.50
49777;DHT22;35673;51.482;7.436;2022-11-27T05:58:40;6.60;93.50
49777;DHT22;35673;51.482;7.436;2022-11-27T06:01:07;6.60;93.50
49777;DHT22;35673;51.482;7.436;2022-11-27T06:03:33;6.60;93.60
49777;DHT22;35673;51.482;7.436;2022-11-27T06:06:16;6.60;93.60
49777;DHT22;35673;51.482;7.436;2022-11-27T06:08:43;6.60;93.60
49777;DHT22;35673;51.482;7.436;2022-11-27T06:11:14;6.60;93.70
49777;DHT22;35673;51.482;7.436;2022-11-27T06:13:40;6.70;93.60
49777;DHT22;35673;51.482;7.436;2022-11-27T06:16:09;6.70;93.40
49777;DHT22;35673;51.482;7.436;2022-11-27T06:18:35;6.70;93.40
49777;DHT22;35673;51.482;7.436;2022-11-27T06:21:08;6.70;93.40
49777;DHT22;35673;51.482;7.436;2022-11-27T06:23:35;6.70;93.30
49777;DHT22;35673;51.482;7.436;2022-11-27T06:26:16;6.70;93.20
49777;DHT22;35673;51.482;7.436;2022-11-27T06:28:42;6.70;93.00
49777;DHT22;35673;51.482;7.436;2022-11-27T06:31:14;6.70;92.80
49777;DHT22;35673;51.482;7.436;2022-11-27T06:33:40;6.80;92.50
49777;DHT22;35673;51.482;7.436;2022-11-27T06:36:06;6.80;92.40
49777;DHT22;35673;51.482;7.436;2022-11-27T06:38:33;6.80;92.40
49777;DHT22;35673;51.482;7.436;2022-11-27T06:41:14;6.80;92.50
49777;DHT22;35673;51.482;7.436;2022-11-27T06:43:39;6.80;92.50
49777;DHT22;35673;51.482;7.436;2022-11-27T06:46:07;6.90;92.40
49777;DHT22;35673;51.482;7.436;2022-11-27T06:48:34;6.90;92.30
49777;DHT22;35673;51.482;7.436;2022-11-27T06:51:00;6.90;92.30
49777;DHT22;35673;51.482;7.436;2022-11-27T06:53:27;7.00;92.20
49777;DHT22;35673;51.482;7.436;2022-11-27T06:55:52;7.00;92.00
49777;DHT22;35673;51.482;7.436;2022-11-27T06:58:18;7.00;91.90
49777;DHT22;35673;51.482;7.436;2022-11-27T07:00:43;7.10;92.00
49777;DHT22;35673;51.482;7.436;2022-11-27T07:03:09;7.10;92.00
49777;DHT22;35673;51.482;7.436;2022-11-27T07:05:35;7.10;91.90
49777;DHT22;35673;51.482;7.436;2022-11-27T07:08:01;7.10;91.90
49777;DHT22;35673;51.482;7.436;2022-11-27T07:10:26;7.10;91.90
49777;DHT22;35673;51.482;7.436;2022-11-27T07:12:52;7.20;92.00
49777;DHT22;35673;51.482;7.436;2022-11-27T07:15:18;7.20;92.10
49777;DHT22;35673;51.482;7.436;2022-11-27T07:17:43;7.20;92.00
49777;DHT22;35673;51.482;7.436;2022-11-27T07:20:09;7.30;92.10
49777;DHT22;35673;51.482;7.436;2022-11-27T07:22:35;7.30;92.10
49777;DHT22;35673;51.482;7.436;2022-11-27T07:25:00;7.30;92.00
49777;DHT22;35673;51.482;7.436;2022-11-27T07:27:26;7.40;92.10
49777;DHT22;35673;51.482;7.436;2022-11-27T07:29:51;7.40;92.10
49777;DHT22;35673;51.482;7.436;2022-11-27T07:32:17;7.40;92.20
49777;DHT22;35673;51.482;7.436;2022-11-27T07:34:42;7.40;92.10
49777;DHT22;35673;51.482;7.436;2022-11-27T07:37:08;7.40;92.00
49777;DHT22;35673;51.482;7.436;2022-11-27T07:39:34;7.50;91.90
49777;DHT22;35673;51.482;7.436;2022-11-27T07:41:59;7.50;92.00
49777;DHT22;35673;51.482;7.436;2022-11-27T07:44:25;7.50;91.90
49777;DHT22;35673;51.482;7.436;2022-11-27T07:46:50;7.60;91.90
49777;DHT22;35673;51.482;7.436;2022-11-27T07:49:16;7.60;91.70
49777;DHT22;35673;51.482;7.436;2022-11-27T07:51:41;7.60;91.60
49777;DHT22;35673;51.482;7.436;2022-11-27T07:54:08;7.70;91.60
49777;DHT22;35673;51.482;7.436;2022-11-27T07:56:33;7.70;91.50
49777;DHT22;35673;51.482;7.436;2022-11-27T07:58:59;7.70;91.40
49777;DHT22;35673;51.482;7.436;2022-11-27T08:01:25;7.80;91.30
49777;DHT22;35673;51.482;7.436;2022-11-27T08:03:50;7.80;91.10
49777;DHT22;35673;51.482;7.436;2022-11-27T08:06:24;7.90;91.20
49777;DHT22;35673;51.482;7.436;2022-11-27T08:08:50;7.80;91.30
49777;DHT22;35673;51.482;7.436;2022-11-27T08:13:48;7.90;91.00
49777;DHT22;35673;51.482;7.436;2022-11-27T08:16:14;7.90;90.90
49777;DHT22;35673;51.482;7.436;2022-11-27T08:18:40;7.90;90.90
49777;DHT22;35673;51.482;7.436;2022-11-27T08:21:06;7.90;90.90
49777;DHT22;35673;51.482;7.436;2022-11-27T08:23:32;8.00;90.70
49777;DHT22;35673;51.482;7.436;2022-11-27T08:25:57;8.00;90.50
49777;DHT22;35673;51.482;7.436;2022-11-27T08:28:23;8.10;90.40
49777;DHT22;35673;51.482;7.436;2022-11-27T08:30:56;8.10;90.40
49777;DHT22;35673;51.482;7.436;2022-11-27T08:33:22;8.20;90.20
49777;DHT22;35673;51.482;7.436;2022-11-27T08:35:48;8.30;90.00
49777;DHT22;35673;51.482;7.436;2022-11-27T08:38:14;8.30;89.30
49777;DHT22;35673;51.482;7.436;2022-11-27T08:40:39;8.40;88.60
49777;DHT22;35673;51.482;7.436;2022-11-27T08:43:05;8.50;88.10
49777;DHT22;35673;51.482;7.436;2022-11-27T08:45:31;8.70;87.70
49777;DHT22;35673;51.482;7.436;2022-11-27T08:47:57;8.80;87.50
49777;DHT22;35673;51.482;7.436;2022-11-27T08:50:23;8.90;87.30
49777;DHT22;35673;51.482;7.436;2022-11-27T08:52:48;9.00;86.60
49777;DHT22;35673;51.482;7.436;2022-11-27T08:55:14;9.10;86.30
49777;DHT22;35673;51.482;7.436;2022-11-27T08:57:39;9.10;85.50
49777;DHT22;35673;51.482;7.436;2022-11-27T09:00:05;9.10;84.90
49777;DHT22;35673;51.482;7.436;2022-11-27T09:02:32;9.10;84.80
49777;DHT22;35673;51.482;7.436;2022-11-27T09:04:58;9.10;84.30
49777;DHT22;35673;51.482;7.436;2022-11-27T09:07:24;9.20;84.40
49777;DHT22;35673;51.482;7.436;2022-11-27T09:09:49;9.20;84.20
49777;DHT22;35673;51.482;7.436;2022-11-27T09:12:15;9.30;84.00
49777;DHT22;35673;51.482;7.436;2022-11-27T09:14:41;9.30;83.20
49777;DHT22;35673;51.482;7.436;2022-11-27T09:17:06;9.40;82.70
49777;DHT22;35673;51.482;7.436;2022-11-27T09:19:32;9.40;82.30
49777;DHT22;35673;51.482;7.436;2022-11-27T09:21:57;9.40;82.00
49777;DHT22;35673;51.482;7.436;2022-11-27T09:24:23;9.50;81.70
49777;DHT22;35673;51.482;7.436;2022-11-27T09:26:49;9.40;81.00
49777;DHT22;35673;51.482;7.436;2022-11-27T09:29:15;9.40;80.60
49777;DHT22;35673;51.482;7.436;2022-11-27T09:31:40;9.40;80.50
49777;DHT22;35673;51.482;7.436;2022-11-27T09:34:06;9.50;80.50
49777;DHT22;35673;51.482;7.436;2022-11-27T09:36:31;9.50;80.00
49777;DHT22;35673;51.482;7.436;2022-11-27T09:38:58;9.50;79.80
49777;DHT22;35673;51.482;7.436;2022-11-27T09:43:55;9.60;79.20
49777;DHT22;35673;51.482;7.436;2022-11-27T09:46:31;9.60;78.80
49777;DHT22;35673;51.482;7.436;2022-11-27T09:49:02;9.60;78.60
49777;DHT22;35673;51.482;7.436;2022-11-27T09:51:46;9.60;78.20
49777;DHT22;35673;51.482;7.436;2022-11-27T09:56:55;9.60;77.50
49777;DHT22;35673;51.482;7.436;2022-11-27T09:59:38;9.50;77.80
49777;DHT22;35673;51.482;7.436;2022-11-27T10:02:15;9.50;77.50
49777;DHT22;35673;51.482;7.436;2022-11-27T10:04:41;9.50;77.00
49777;DHT22;35673;51.482;7.436;2022-11-27T10:07:15;9.50;77.30
49777;DHT22;35673;51.482;7.436;2022-11-27T10:13:02;9.60;76.10
49777;DHT22;35673;51.482;7.436;2022-11-27T10:15:41;9.70;76.30
49777;DHT22;35673;51.482;7.436;2022-11-27T10:18:15;9.70;76.10
49777;DHT22;35673;51.482;7.436;2022-11-27T10:20:52;9.80;75.80
49777;DHT22;35673;51.482;7.436;2022-11-27T10:26:33;10.00;74.60
49777;DHT22;35673;51.482;7.436;2022-11-27T10:31:44;10.20;73.70
49777;DHT22;35673;51.482;7.436;2022-11-27T10:34:46;10.20;73.90
49777;DHT22;35673;51.482;7.436;2022-11-27T10:37:29;10.30;72.60
49777;DHT22;35673;51.482;7.436;2022-11-27T10:42:57;10.40;72.30
49777;DHT22;35673;51.482;7.436;2022-11-27T10:45:56;10.50;71.80
49777;DHT22;35673;51.482;7.436;2022-11-27T10:48:23;10.50;72.50
49777;DHT22;35673;51.482;7.436;2022-11-27T10:50:49;10.60;72.50
49777;DHT22;35673;51.482;7.436;2022-11-27T10:53:34;10.70;72.10
49777;DHT22;35673;51.482;7.436;2022-11-27T10:56:25;10.80;71.60
49777;DHT22;35673;51.482;7.436;2022-11-27T10:58:56;10.90;71.00
49777;DHT22;35673;51.482;7.436;2022-11-27T11:01:25;10.90;71.30
49777;DHT22;35673;51.482;7.436;2022-11-27T11:04:04;11.00;71.20
49777;DHT22;35673;51.482;7.436;2022-11-27T11:06:31;11.00;70.90
49777;DHT22;35673;51.482;7.436;2022-11-27T11:09:16;11.00;70.90
49777;DHT22;35673;51.482;7.436;2022-11-27T11:11:42;11.00;69.50
49777;DHT22;35673;51.482;7.436;2022-11-27T11:16:43;11.00;70.20
49777;DHT22;35673;51.482;7.436;2022-11-27T11:19:28;11.00;70.50
49777;DHT22;35673;51.482;7.436;2022-11-27T11:21:53;11.00;69.80
49777;DHT22;35673;51.482;7.436;2022-11-27T11:27:05;10.90;69.90
49777;DHT22;35673;51.482;7.436;2022-11-27T11:29:46;10.90;69.80
49777;DHT22;35673;51.482;7.436;2022-11-27T11:32:25;10.90;70.20
49777;DHT22;35673;51.482;7.436;2022-11-27T11:35:03;10.80;70.10
49777;DHT22;35673;51.482;7.436;2022-11-27T11:37:31;10.80;70.30
49777;DHT22;35673;51.482;7.436;2022-11-27T11:40:00;10.80;70.50
49777;DHT22;35673;51.482;7.436;2022-11-27T11:42:33;10.90;70.60
49777;DHT22;35673;51.482;7.436;2022-11-27T11:45:11;11.00;70.50
49777;DHT22;35673;51.482;7.436;2022-11-27T11:47:49;11.00;70.20
49777;DHT22;35673;51.482;7.436;2022-11-27T12:01:41;11.30;69.10
49777;DHT22;35673;51.482;7.436;2022-11-27T12:04:46;11.40;68.60
49777;DHT22;35673;51.482;7.436;2022-11-27T12:10:27;11.50;68.20
49777;DHT22;35673;51.482;7.436;2022-11-27T12:13:17;11.40;67.50
49777;DHT22;35673;51.482;7.436;2022-11-27T12:16:02;11.40;68.00
49777;DHT22;35673;51.482;7.436;2022-11-27T12:23:56;11.40;67.80
49777;DHT22;35673;51.482;7.436;2022-11-27T12:37:18;11.50;67.70
49777;DHT22;35673;51.482;7.436;2022-11-27T12:39:59;11.50;67.40
49777;DHT22;35673;51.482;7.436;2022-11-27T12:42:35;11.50;67.00
49777;DHT22;35673;51.482;7.436;2022-11-27T12:45:05;11.50;67.10
49777;DHT22;35673;51.482;7.436;2022-11-27T12:47:46;11.50;67.10
49777;DHT22;35673;51.482;7.436;2022-11-27T12:50:29;11.50;67.00
49777;DHT22;35673;51.482;7.436;2022-11-27T12:53:22;11.40;67.20
49777;DHT22;35673;51.482;7.436;2022-11-27T12:56:22;11.40;67.40
49777;DHT22;35673;51.482;7.436;2022-11-27T12:59:17;11.30;67.70
49777;DHT22;35673;51.482;7.436;2022-11-27T13:01:49;11.30;68.20
49777;DHT22;35673;51.482;7.436;2022-11-27T13:04:23;11.20;68.40
49777;DHT22;35673;51.482;7.436;2022-11-27T13:07:11;11.20;68.50
49777;DHT22;35673;51.482;7.436;2022-11-27T13:12:17;11.10;69.30
49777;DHT22;35673;51.482;7.436;2022-11-27T13:14:50;11.10;69.80
49777;DHT22;35673;51.482;7.436;2022-11-27T13:17:19;11.10;70.00
49777;DHT22;35673;51.482;7.436;2022-11-27T13:19:48;11.10;70.00
49777;DHT22;35673;51.482;7.436;2022-11-27T13:22:29;11.10;69.80
49777;DHT22;35673;51.482;7.436;2022-11-27T13:24:59;11.10;69.50
49777;DHT22;35673;51.482;7.436;2022-11-27T13:27:28;11.00;69.60
49777;DHT22;35673;51.482;7.436;2022-11-27T13:30:00;11.00;69.50
49777;DHT22;35673;51.482;7.436;2022-11-27T13:32:34;11.00;69.10
49777;DHT22;35673;51.482;7.436;2022-11-27T13:35:05;10.90;68.70
49777;DHT22;35673;51.482;7.436;2022-11-27T13:37:37;11.00;68.70
49777;DHT22;35673;51.482;7.436;2022-11-27T13:40:23;10.90;68.50
49777;DHT22;35673;51.482;7.436;2022-11-27T13:42:53;10.90;68.30
49777;DHT22;35673;51.482;7.436;2022-11-27T13:45:27;10.90;68.40
49777;DHT22;35673;51.482;7.436;2022-11-27T13:47:53;10.90;68.20
49777;DHT22;35673;51.482;7.436;2022-11-27T13:50:22;10.90;68.20
49777;DHT22;35673;51.482;7.436;2022-11-27T13:53:08;10.90;68.20
49777;DHT22;35673;51.482;7.436;2022-11-27T13:55:36;10.90;67.80
49777;DHT22;35673;51.482;7.436;2022-11-27T13:58:04;10.90;68.50
49777;DHT22;35673;51.482;7.436;2022-11-27T14:00:41;10.90;68.50
49777;DHT22;35673;51.482;7.436;2022-11-27T14:03:28;10.90;68.10
49777;DHT22;35673;51.482;7.436;2022-11-27T14:05:55;10.90;67.60
49777;DHT22;35673;51.482;7.436;2022-11-27T14:08:27;10.90;67.80
49777;DHT22;35673;51.482;7.436;2022-11-27T14:11:08;10.90;67.80
49777;DHT22;35673;51.482;7.436;2022-11-27T14:14:10;10.90;67.80
49777;DHT22;35673;51.482;7.436;2022-11-27T14:16:37;10.90;67.40
49777;DHT22;35673;51.482;7.436;2022-11-27T14:19:20;10.80;67.80
49777;DHT22;35673;51.482;7.436;2022-11-27T14:21:48;10.80;67.90
49777;DHT22;35673;51.482;7.436;2022-11-27T14:24:33;10.80;68.00
49777;DHT22;35673;51.482;7.436;2022-11-27T14:27:12;10.90;67.80
49777;DHT22;35673;51.482;7.436;2022-11-27T14:29:39;10.80;67.60
49777;DHT22;35673;51.482;7.436;2022-11-27T14:32:11;10.80;67.60
49777;DHT22;35673;51.482;7.436;2022-11-27T14:34:37;10.80;67.60
49777;DHT22;35673;51.482;7.436;2022-11-27T14:37:03;10.80;67.80
49777;DHT22;35673;51.482;7.436;2022-11-27T14:39:31;10.70;68.00
49777;DHT22;35673;51.482;7.436;2022-11-27T14:42:05;10.70;68.00
49777;DHT22;35673;51.482;7.436;2022-11-27T14:44:33;10.70;68.00
49777;DHT22;35673;51.482;7.436;2022-11-27T14:47:04;10.70;67.90
49777;DHT22;35673;51.482;7.436;2022-11-27T14:49:32;10.60;67.90
49777;DHT22;35673;51.482;7.436;2022-11-27T14:52:06;10.60;68.00
49777;DHT22;35673;51.482;7.436;2022-11-27T14:54:35;10.50;68.00
49777;DHT22;35673;51.482;7.436;2022-11-27T14:57:01;10.50;68.00
49777;DHT22;35673;51.482;7.436;2022-11-27T14:59:28;10.50;68.10
49777;DHT22;35673;51.482;7.436;2022-11-27T15:04:38;10.50;68.00
49777;DHT22;35673;51.482;7.436;2022-11-27T15:07:10;10.50;68.20
49777;DHT22;35673;51.482;7.436;2022-11-27T15:09:36;10.50;68.10
49777;DHT22;35673;51.482;7.436;2022-11-27T15:12:16;10.40;68.10
49777;DHT22;35673;51.482;7.436;2022-11-27T15:14:50;10.40;68.30
49777;DHT22;35673;51.482;7.436;2022-11-27T15:17:26;10.40;68.30
49777;DHT22;35673;51.482;7.436;2022-11-27T15:19:54;10.40;68.60
49777;DHT22;35673;51.482;7.436;2022-11-27T15:22:21;10.40;68.70
49777;DHT22;35673;51.482;7.436;2022-11-27T15:25:00;10.40;68.90
49777;DHT22;35673;51.482;7.436;2022-11-27T15:27:26;10.40;69.00
49777;DHT22;35673;51.482;7.436;2022-11-27T15:32:22;10.20;69.50
49777;DHT22;35673;51.482;7.436;2022-11-27T15:34:49;10.20;70.30
49777;DHT22;35673;51.482;7.436;2022-11-27T15:37:28;10.20;70.50
49777;DHT22;35673;51.482;7.436;2022-11-27T15:39:57;10.20;70.90
49777;DHT22;35673;51.482;7.436;2022-11-27T15:42:23;10.20;71.50
49777;DHT22;35673;51.482;7.436;2022-11-27T15:44:55;10.20;71.80
49777;DHT22;35673;51.482;7.436;2022-11-27T15:47:29;10.20;72.10
49777;DHT22;35673;51.482;7.436;2022-11-27T15:49:56;10.10;73.40
49777;DHT22;35673;51.482;7.436;2022-11-27T15:52:23;10.10;74.30
49777;DHT22;35673;51.482;7.436;2022-11-27T15:54:49;10.10;74.30
49777;DHT22;35673;51.482;7.436;2022-11-27T15:57:15;10.10;74.00
49777;DHT22;35673;51.482;7.436;2022-11-27T15:59:41;10.00;74.00
49777;DHT22;35673;51.482;7.436;2022-11-27T16:02:08;10.00;74.40
49777;DHT22;35673;51.482;7.436;2022-11-27T16:04:34;10.00;75.10
49777;DHT22;35673;51.482;7.436;2022-11-27T16:07:00;9.90;75.10
49777;DHT22;35673;51.482;7.436;2022-11-27T16:09:25;9.80;75.50
49777;DHT22;35673;51.482;7.436;2022-11-27T16:11:51;9.70;76.00
49777;DHT22;35673;51.482;7.436;2022-11-27T16:14:16;9.70;76.20
49777;DHT22;35673;51.482;7.436;2022-11-27T16:16:42;9.70;76.30
49777;DHT22;35673;51.482;7.436;2022-11-27T16:19:08;9.70;76.80
49777;DHT22;35673;51.482;7.436;2022-11-27T16:21:37;9.70;76.40
49777;DHT22;35673;51.482;7.436;2022-11-27T16:24:04;9.70;76.80
49777;DHT22;35673;51.482;7.436;2022-11-27T16:26:31;9.70;76.70
49777;DHT22;35673;51.482;7.436;2022-11-27T16:28:56;9.60;76.60
49777;DHT22;35673;51.482;7.436;2022-11-27T16:31:23;9.60;77.40
49777;DHT22;35673;51.482;7.436;2022-11-27T16:33:49;9.60;76.40
49777;DHT22;35673;51.482;7.436;2022-11-27T16:36:16;9.50;76.20
49777;DHT22;35673;51.482;7.436;2022-11-27T16:38:43;9.50;76.20
49777;DHT22;35673;51.482;7.436;2022-11-27T16:41:11;9.50;76.30
49777;DHT22;35673;51.482;7.436;2022-11-27T16:43:43;9.50;76.30
49777;DHT22;35673;51.482;7.436;2022-11-27T16:46:15;9.50;76.40
49777;DHT22;35673;51.482;7.436;2022-11-27T16:48:42;9.40;76.10
49777;DHT22;35673;51.482;7.436;2022-11-27T16:51:14;9.40;76.10
49777;DHT22;35673;51.482;7.436;2022-11-27T16:53:41;9.50;76.10
49777;DHT22;35673;51.482;7.436;2022-11-27T16:56:09;9.50;75.80
49777;DHT22;35673;51.482;7.436;2022-11-27T16:58:36;9.40;75.80
49777;DHT22;35673;51.482;7.436;2022-11-27T17:01:07;9.40;75.90
49777;DHT22;35673;51.482;7.436;2022-11-27T17:03:33;9.40;75.90
49777;DHT22;35673;51.482;7.436;2022-11-27T17:05:58;9.40;75.60
49777;DHT22;35673;51.482;7.436;2022-11-27T17:08:24;9.30;76.00
49777;DHT22;35673;51.482;7.436;2022-11-27T17:10:49;9.30;76.10
49777;DHT22;35673;51.482;7.436;2022-11-27T17:13:15;9.30;76.20
49777;DHT22;35673;51.482;7.436;2022-11-27T17:15:41;9.20;76.50
49777;DHT22;35673;51.482;7.436;2022-11-27T17:18:06;9.20;77.00
49777;DHT22;35673;51.482;7.436;2022-11-27T17:20:32;9.20;76.90
49777;DHT22;35673;51.482;7.436;2022-11-27T17:22:57;9.20;77.10
49777;DHT22;35673;51.482;7.436;2022-11-27T17:25:23;9.20;76.80
49777;DHT22;35673;51.482;7.436;2022-11-27T17:27:49;9.20;77.20
49777;DHT22;35673;51.482;7.436;2022-11-27T17:30:16;9.20;77.00
49777;DHT22;35673;51.482;7.436;2022-11-27T17:32:41;9.10;77.00
49777;DHT22;35673;51.482;7.436;2022-11-27T17:35:07;9.10;77.00
49777;DHT22;35673;51.482;7.436;2022-11-27T17:37:33;9.10;77.10